Аэропорт: Ужгород. Ужгород

ICAO: UKLU

METAR:
Информация по данной станции не доступна
METAR:
2021-04-21 14:00:00
TAF UKLU 211400Z 2115/2124 21005MPS 9999 BKN040 PROB40 TEMPO 2115/2121 VRB07G12MPS -TSRA BKN015CB